createdAt,value
2018-12-13T00:02:49.106Z,5.53
2018-12-13T00:07:49.917Z,3.80
2018-12-13T00:12:48.645Z,3.80
2018-12-13T00:17:47.362Z,3.97
2018-12-13T00:22:46.149Z,4.10
2018-12-13T00:27:44.845Z,6.27
2018-12-13T00:32:43.693Z,4.77
2018-12-13T00:37:42.425Z,3.47
2018-12-13T00:42:41.237Z,5.93
2018-12-13T00:47:39.953Z,4.20
2018-12-13T00:57:43.910Z,4.57
2018-12-13T01:02:42.702Z,5.50
2018-12-13T01:07:41.477Z,4.30
2018-12-13T01:12:40.355Z,2.87
2018-12-13T01:17:39.194Z,3.50
2018-12-13T01:22:38.021Z,3.80
2018-12-13T01:27:36.790Z,4.17
2018-12-13T01:32:35.489Z,4.83
2018-12-13T01:37:34.241Z,2.40
2018-12-13T01:42:33.097Z,6.23
2018-12-13T01:47:31.929Z,4.23
2018-12-13T01:52:30.647Z,4.20
2018-12-13T01:57:29.437Z,5.50
2018-12-13T02:02:28.261Z,4.47
2018-12-13T02:07:26.970Z,4.43
2018-12-13T02:12:25.742Z,4.07
2018-12-13T02:17:24.587Z,5.43
2018-12-13T02:22:23.495Z,5.47
2018-12-13T02:27:23.420Z,7.13
2018-12-13T02:32:22.157Z,9.00
2018-12-13T02:37:20.960Z,4.17
2018-12-13T02:42:19.814Z,5.20
2018-12-13T02:47:18.539Z,6.80
2018-12-13T02:52:17.463Z,4.80
2018-12-13T02:57:16.262Z,6.30
2018-12-13T03:02:14.982Z,4.37
2018-12-13T03:07:14.315Z,3.83
2018-12-13T03:12:13.284Z,4.60
2018-12-13T03:17:12.014Z,5.43
2018-12-13T03:22:10.799Z,3.80
2018-12-13T03:27:09.502Z,7.53
2018-12-13T03:32:08.372Z,3.53
2018-12-13T03:37:07.165Z,2.90
2018-12-13T03:42:05.970Z,5.60
2018-12-13T03:47:05.268Z,4.30
2018-12-13T03:52:04.171Z,3.23
2018-12-13T03:57:03.286Z,3.40
2018-12-13T04:02:02.085Z,2.23
2018-12-13T04:07:00.782Z,2.00
2018-12-13T04:11:59.486Z,3.67
2018-12-13T04:16:58.203Z,2.10
2018-12-13T04:22:00.530Z,2.30
2018-12-13T04:26:59.349Z,3.23
2018-12-13T04:31:58.099Z,2.87
2018-12-13T04:36:56.898Z,1.70
2018-12-13T04:41:55.635Z,1.40
2018-12-13T04:46:54.450Z,5.37
2018-12-13T04:51:53.242Z,2.50
2018-12-13T04:56:52.089Z,2.33
2018-12-13T05:01:50.912Z,2.27
2018-12-13T05:06:49.706Z,2.20
2018-12-13T05:11:48.489Z,2.00
2018-12-13T05:16:47.237Z,2.10
2018-12-13T05:21:46.010Z,2.50
2018-12-13T05:26:44.769Z,6.37
2018-12-13T05:31:43.494Z,5.33
2018-12-13T05:36:42.273Z,2.03
2018-12-13T05:41:40.989Z,2.37
2018-12-13T05:46:39.710Z,3.90
2018-12-13T05:51:38.437Z,1.60
2018-12-13T05:56:37.346Z,1.50
2018-12-13T06:01:36.174Z,3.10
2018-12-13T06:06:34.893Z,3.50
2018-12-13T06:11:33.633Z,5.20
2018-12-13T06:16:32.450Z,1.83
2018-12-13T06:21:36.654Z,3.73
2018-12-13T06:26:32.035Z,2.97
2018-12-13T06:31:30.854Z,2.80
2018-12-13T06:36:29.592Z,5.10
2018-12-13T06:41:28.363Z,5.13
2018-12-13T06:46:27.161Z,2.53
2018-12-13T06:51:27.368Z,3.83
2018-12-13T06:56:26.499Z,5.60
2018-12-13T07:01:25.285Z,2.37
2018-12-13T07:06:24.072Z,4.07
2018-12-13T07:11:22.758Z,3.30
2018-12-13T07:16:21.477Z,2.40
2018-12-13T07:21:20.295Z,3.53
2018-12-13T07:26:19.062Z,3.93
2018-12-13T07:31:17.975Z,3.40
2018-12-13T07:36:16.798Z,2.73
2018-12-13T07:41:15.607Z,3.30
2018-12-13T07:46:14.437Z,2.63
2018-12-13T07:51:13.206Z,3.17
2018-12-13T07:56:12.018Z,4.27
2018-12-13T08:01:10.814Z,3.43
2018-12-13T08:06:09.534Z,3.37
2018-12-13T08:11:08.318Z,7.20
2018-12-13T08:16:07.104Z,9.67
2018-12-13T08:21:07.854Z,3.43
2018-12-13T08:26:06.569Z,5.60
2018-12-13T08:31:05.406Z,5.77
2018-12-13T08:36:04.198Z,6.03
2018-12-13T08:41:04.031Z,8.83
2018-12-13T08:46:02.889Z,7.50
2018-12-13T08:51:01.670Z,5.63
2018-12-13T08:56:00.414Z,3.93
2018-12-13T09:00:59.202Z,4.50
2018-12-13T09:05:58.050Z,4.60
2018-12-13T09:10:56.987Z,2.97
2018-12-13T09:15:55.774Z,2.70
2018-12-13T09:20:55.745Z,4.10
2018-12-13T09:25:54.571Z,2.63
2018-12-13T09:30:53.565Z,3.60
2018-12-13T09:35:52.549Z,4.93
2018-12-13T09:40:53.321Z,3.07
2018-12-13T09:45:52.086Z,2.73
2018-12-13T09:50:50.942Z,3.57
2018-12-13T09:55:49.813Z,7.00
2018-12-13T10:00:48.621Z,3.17
2018-12-13T10:05:47.368Z,2.90
2018-12-13T10:10:47.244Z,2.70
2018-12-13T10:15:45.974Z,3.00
2018-12-13T10:20:44.731Z,2.73
2018-12-13T10:25:43.499Z,3.30
2018-12-13T10:30:42.262Z,2.70
2018-12-13T10:35:41.018Z,6.47
2018-12-13T10:40:40.926Z,5.40
2018-12-13T10:45:39.759Z,3.00
2018-12-13T10:50:38.518Z,4.43
2018-12-13T10:55:37.300Z,3.43
2018-12-13T11:00:37.238Z,7.33
2018-12-13T11:05:36.206Z,4.10
2018-12-13T11:10:34.974Z,3.80
2018-12-13T11:15:33.967Z,4.53
2018-12-13T11:20:32.810Z,4.90
2018-12-13T11:25:31.754Z,4.40
2018-12-13T11:30:30.450Z,10.80
2018-12-13T11:35:30.690Z,4.07
2018-12-13T11:40:29.612Z,6.90
2018-12-13T11:45:28.457Z,4.10
2018-12-13T11:50:27.236Z,8.93
2018-12-13T11:55:36.373Z,3.77
2018-12-13T12:00:35.234Z,4.33
2018-12-13T12:05:34.045Z,6.80
2018-12-13T12:10:32.923Z,4.00
2018-12-13T12:15:32.897Z,3.90
2018-12-13T12:20:31.738Z,5.10
2018-12-13T12:25:30.489Z,3.47
2018-12-13T12:30:29.215Z,5.43
2018-12-13T12:35:27.950Z,3.73
2018-12-13T12:40:26.650Z,3.37
2018-12-13T12:45:25.403Z,5.40
2018-12-13T12:50:24.194Z,4.77
2018-12-13T12:55:24.194Z,10.53
2018-12-13T13:00:22.933Z,11.57
2018-12-13T13:05:22.730Z,3.13
2018-12-13T13:10:21.561Z,3.97
2018-12-13T13:15:20.462Z,4.60
2018-12-13T13:20:20.785Z,3.70
2018-12-13T13:25:19.466Z,4.70
2018-12-13T13:30:19.338Z,6.00
2018-12-13T13:35:18.194Z,3.27
2018-12-13T13:40:17.975Z,4.60
2018-12-13T13:45:16.748Z,4.00
2018-12-13T13:50:15.634Z,10.03
2018-12-13T13:55:14.578Z,4.73
2018-12-13T14:00:13.559Z,4.93
2018-12-13T14:05:12.504Z,6.30
2018-12-13T14:10:11.457Z,4.73
2018-12-13T14:15:10.313Z,5.83
2018-12-13T14:20:09.919Z,3.50
2018-12-13T14:25:09.818Z,3.90
2018-12-13T14:30:08.652Z,3.90
2018-12-13T14:35:07.358Z,3.20
2018-12-13T14:40:06.249Z,4.20
2018-12-13T14:45:07.097Z,3.80
2018-12-13T14:50:07.086Z,6.20
2018-12-13T14:55:06.038Z,4.03
2018-12-13T15:00:06.602Z,6.47
2018-12-13T15:05:06.594Z,5.47
2018-12-13T15:10:05.477Z,11.60
2018-12-13T15:15:04.698Z,4.90
2018-12-13T15:20:03.915Z,4.67
2018-12-13T15:25:02.699Z,4.53
2018-12-13T15:30:01.428Z,3.70
2018-12-13T15:35:00.481Z,4.63
2018-12-13T15:39:59.274Z,4.90
2018-12-13T15:44:57.982Z,5.17
2018-12-13T15:49:56.763Z,5.60
2018-12-13T15:54:55.486Z,3.63
2018-12-13T15:59:54.294Z,4.63
2018-12-13T16:04:53.029Z,5.50
2018-12-13T16:09:51.783Z,5.77
2018-12-13T16:14:50.542Z,4.47
2018-12-13T16:19:49.314Z,6.13
2018-12-13T16:24:48.056Z,5.20
2018-12-13T16:29:46.802Z,5.47
2018-12-13T16:34:45.542Z,3.80
2018-12-13T16:39:44.314Z,6.33
2018-12-13T16:44:43.095Z,6.27
2018-12-13T16:49:41.881Z,10.03
2018-12-13T16:54:40.673Z,5.00
2018-12-13T16:59:39.530Z,7.80
2018-12-13T17:04:38.296Z,8.37
2018-12-13T17:09:37.099Z,7.27
2018-12-13T17:14:35.897Z,8.20
2018-12-13T17:19:34.634Z,9.57
2018-12-13T17:24:33.394Z,8.63
2018-12-13T17:29:32.182Z,10.60
2018-12-13T17:34:30.989Z,9.23
2018-12-13T17:39:29.850Z,10.90
2018-12-13T17:44:28.746Z,9.57
2018-12-13T17:49:27.482Z,7.50
2018-12-13T17:54:26.199Z,9.80
2018-12-13T17:59:24.939Z,12.37
2018-12-13T18:04:23.739Z,11.40
2018-12-13T18:09:22.565Z,11.90
2018-12-13T18:14:21.257Z,9.20
2018-12-13T18:19:19.974Z,13.43
2018-12-13T18:24:18.891Z,13.10
2018-12-13T18:29:17.641Z,11.70
2018-12-13T18:34:16.382Z,13.30
2018-12-13T18:39:15.126Z,11.67
2018-12-13T18:44:13.926Z,14.70
2018-12-13T18:49:12.655Z,18.37
2018-12-13T18:54:11.503Z,15.50
2018-12-13T18:59:10.302Z,13.67
2018-12-13T19:04:09.030Z,12.47
2018-12-13T19:09:08.666Z,16.03
2018-12-13T19:14:09.462Z,16.20
2018-12-13T19:19:08.258Z,14.17
2018-12-13T19:24:07.111Z,17.47
2018-12-13T19:29:05.870Z,16.80
2018-12-13T19:34:04.664Z,12.80
2018-12-13T19:39:05.769Z,21.80
2018-12-13T19:44:06.302Z,16.40
2018-12-13T19:49:05.108Z,13.13
2018-12-13T19:54:03.966Z,16.67
2018-12-13T19:59:02.854Z,13.37
2018-12-13T20:04:01.609Z,15.67
2018-12-13T20:09:01.346Z,15.93
2018-12-13T20:14:02.090Z,14.00
2018-12-13T20:19:00.964Z,14.10
2018-12-13T20:23:59.701Z,13.87
2018-12-13T20:28:58.550Z,13.83
2018-12-13T20:33:57.311Z,13.33
2018-12-13T20:38:56.090Z,14.57
2018-12-13T20:43:54.834Z,15.43
2018-12-13T20:48:53.542Z,14.77
2018-12-13T20:53:52.274Z,7.80
2018-12-13T20:58:51.064Z,14.30
2018-12-13T21:03:49.934Z,13.37
2018-12-13T21:08:48.700Z,12.43
2018-12-13T21:13:47.503Z,12.00
2018-12-13T21:18:46.318Z,13.30
2018-12-13T21:23:45.106Z,14.77
2018-12-13T21:28:43.956Z,13.17
2018-12-13T21:33:42.715Z,10.87
2018-12-13T21:38:41.485Z,10.60
2018-12-13T21:43:40.218Z,16.67
2018-12-13T21:48:38.976Z,14.40
2018-12-13T21:53:37.746Z,9.70
2018-12-13T21:58:36.491Z,11.50
2018-12-13T22:03:36.351Z,14.10
2018-12-13T22:08:35.066Z,11.83
2018-12-13T22:13:33.814Z,10.43
2018-12-13T22:18:32.551Z,12.73
2018-12-13T22:23:31.288Z,9.93
2018-12-13T22:28:30.174Z,10.70
2018-12-13T22:33:28.895Z,9.27
2018-12-13T22:38:27.649Z,11.03
2018-12-13T22:43:26.446Z,11.20
2018-12-13T22:48:25.194Z,9.43
2018-12-13T22:53:23.928Z,10.50
2018-12-13T22:58:22.638Z,10.40
2018-12-13T23:03:21.530Z,11.20
2018-12-13T23:08:20.353Z,11.20
2018-12-13T23:13:19.265Z,9.83
2018-12-13T23:18:18.007Z,9.50
2018-12-13T23:23:16.782Z,10.17
2018-12-13T23:28:15.531Z,9.97
2018-12-13T23:33:14.266Z,14.00
2018-12-13T23:38:13.094Z,11.07
2018-12-13T23:43:11.986Z,10.20
2018-12-13T23:48:10.902Z,10.13
2018-12-13T23:53:09.704Z,13.83
2018-12-13T23:58:08.466Z,9.30
